sensor_id;sensor_type;location;lat;lon;timestamp;P1;durP1;ratioP1;P2;durP2;ratioP2
7747;SDS011;3918;42.564;23.164;2024-01-11T05:01:31;5.50;;;5.00;;
7747;SDS011;3918;42.564;23.164;2024-01-11T05:03:59;4.87;;;4.40;;
7747;SDS011;3918;42.564;23.164;2024-01-11T05:06:26;5.20;;;4.80;;
7747;SDS011;3918;42.564;23.164;2024-01-11T05:08:53;6.63;;;4.43;;
7747;SDS011;3918;42.564;23.164;2024-01-11T05:11:20;5.60;;;4.50;;
7747;SDS011;3918;42.564;23.164;2024-01-11T05:13:47;6.07;;;5.30;;
7747;SDS011;3918;42.564;23.164;2024-01-11T05:16:20;6.47;;;5.93;;
7747;SDS011;3918;42.564;23.164;2024-01-11T05:18:49;8.37;;;7.57;;
7747;SDS011;3918;42.564;23.164;2024-01-11T05:21:16;18.00;;;10.77;;
7747;SDS011;3918;42.564;23.164;2024-01-11T05:23:43;20.27;;;9.93;;
7747;SDS011;3918;42.564;23.164;2024-01-11T05:26:10;7.17;;;6.37;;
7747;SDS011;3918;42.564;23.164;2024-01-11T05:28:37;7.37;;;6.50;;
7747;SDS011;3918;42.564;23.164;2024-01-11T05:31:05;14.87;;;10.10;;
7747;SDS011;3918;42.564;23.164;2024-01-11T05:33:32;7.53;;;6.83;;
7747;SDS011;3918;42.564;23.164;2024-01-11T05:36:00;6.23;;;5.73;;
7747;SDS011;3918;42.564;23.164;2024-01-11T05:38:27;8.47;;;6.43;;
7747;SDS011;3918;42.564;23.164;2024-01-11T05:40:54;6.37;;;5.83;;
7747;SDS011;3918;42.564;23.164;2024-01-11T05:43:21;8.03;;;7.23;;
7747;SDS011;3918;42.564;23.164;2024-01-11T05:45:48;9.20;;;7.17;;
7747;SDS011;3918;42.564;23.164;2024-01-11T05:48:15;8.10;;;6.73;;
7747;SDS011;3918;42.564;23.164;2024-01-11T05:50:42;7.87;;;7.07;;
7747;SDS011;3918;42.564;23.164;2024-01-11T05:53:10;8.70;;;7.47;;
7747;SDS011;3918;42.564;23.164;2024-01-11T05:55:37;8.60;;;7.60;;
7747;SDS011;3918;42.564;23.164;2024-01-11T05:58:04;10.03;;;8.10;;
7747;SDS011;3918;42.564;23.164;2024-01-11T06:00:31;7.40;;;6.70;;
7747;SDS011;3918;42.564;23.164;2024-01-11T06:02:58;6.73;;;6.13;;
7747;SDS011;3918;42.564;23.164;2024-01-11T06:05:25;7.23;;;6.53;;
7747;SDS011;3918;42.564;23.164;2024-01-11T06:07:53;10.33;;;8.20;;
7747;SDS011;3918;42.564;23.164;2024-01-11T06:10:21;7.33;;;6.20;;
7747;SDS011;3918;42.564;23.164;2024-01-11T06:12:47;8.10;;;7.30;;
7747;SDS011;3918;42.564;23.164;2024-01-11T06:15:14;12.97;;;8.13;;
7747;SDS011;3918;42.564;23.164;2024-01-11T06:17:41;11.97;;;9.10;;
7747;SDS011;3918;42.564;23.164;2024-01-11T06:20:08;23.10;;;10.57;;
7747;SDS011;3918;42.564;23.164;2024-01-11T06:22:36;23.80;;;13.40;;
7747;SDS011;3918;42.564;23.164;2024-01-11T06:25:03;19.33;;;10.87;;
7747;SDS011;3918;42.564;23.164;2024-01-11T06:27:32;21.63;;;11.67;;
7747;SDS011;3918;42.564;23.164;2024-01-11T06:29:59;17.83;;;10.47;;
7747;SDS011;3918;42.564;23.164;2024-01-11T06:32:26;14.57;;;10.40;;
7747;SDS011;3918;42.564;23.164;2024-01-11T06:34:53;14.80;;;11.87;;
7747;SDS011;3918;42.564;23.164;2024-01-11T06:37:20;24.73;;;16.23;;
7747;SDS011;3918;42.564;23.164;2024-01-11T06:39:47;19.90;;;14.97;;
7747;SDS011;3918;42.564;23.164;2024-01-11T06:42:14;18.70;;;14.53;;
7747;SDS011;3918;42.564;23.164;2024-01-11T06:44:42;35.47;;;21.53;;
7747;SDS011;3918;42.564;23.164;2024-01-11T06:47:09;41.23;;;27.90;;
7747;SDS011;3918;42.564;23.164;2024-01-11T06:49:38;47.20;;;32.43;;
7747;SDS011;3918;42.564;23.164;2024-01-11T06:52:05;32.43;;;22.97;;
7747;SDS011;3918;42.564;23.164;2024-01-11T06:54:32;19.53;;;17.50;;
7747;SDS011;3918;42.564;23.164;2024-01-11T06:56:59;14.20;;;13.00;;
7747;SDS011;3918;42.564;23.164;2024-01-11T06:59:26;11.40;;;10.57;;
7747;SDS011;3918;42.564;23.164;2024-01-11T07:01:54;9.23;;;8.43;;
7747;SDS011;3918;42.564;23.164;2024-01-11T07:04:21;7.03;;;6.53;;
7747;SDS011;3918;42.564;23.164;2024-01-11T07:06:48;6.90;;;6.30;;
7747;SDS011;3918;42.564;23.164;2024-01-11T07:09:15;5.72;;;5.28;;
7747;SDS011;3918;42.564;23.164;2024-01-11T07:11:42;8.05;;;4.93;;
7747;SDS011;3918;42.564;23.164;2024-01-11T07:14:09;4.57;;;4.18;;
7747;SDS011;3918;42.564;23.164;2024-01-11T07:16:36;4.70;;;3.97;;
7747;SDS011;3918;42.564;23.164;2024-01-11T07:19:04;4.55;;;3.70;;
7747;SDS011;3918;42.564;23.164;2024-01-11T07:21:31;3.53;;;3.22;;
7747;SDS011;3918;42.564;23.164;2024-01-11T07:23:58;3.30;;;3.08;;
7747;SDS011;3918;42.564;23.164;2024-01-11T07:26:25;4.28;;;2.92;;
7747;SDS011;3918;42.564;23.164;2024-01-11T07:28:52;3.22;;;2.40;;
7747;SDS011;3918;42.564;23.164;2024-01-11T07:31:20;4.25;;;2.78;;
7747;SDS011;3918;42.564;23.164;2024-01-11T07:33:48;3.13;;;2.70;;
7747;SDS011;3918;42.564;23.164;2024-01-11T07:36:16;2.55;;;2.35;;
7747;SDS011;3918;42.564;23.164;2024-01-11T07:38:43;3.65;;;3.05;;
7747;SDS011;3918;42.564;23.164;2024-01-11T07:41:10;3.83;;;2.50;;
7747;SDS011;3918;42.564;23.164;2024-01-11T07:43:37;2.97;;;2.78;;
7747;SDS011;3918;42.564;23.164;2024-01-11T07:46:04;2.50;;;2.30;;
7747;SDS011;3918;42.564;23.164;2024-01-11T07:48:32;2.55;;;2.35;;
7747;SDS011;3918;42.564;23.164;2024-01-11T07:51:00;2.55;;;2.35;;
7747;SDS011;3918;42.564;23.164;2024-01-11T07:53:28;3.60;;;2.65;;
7747;SDS011;3918;42.564;23.164;2024-01-11T07:55:57;3.78;;;2.80;;
7747;SDS011;3918;42.564;23.164;2024-01-11T07:58:23;2.90;;;2.70;;
7747;SDS011;3918;42.564;23.164;2024-01-11T08:00:50;2.83;;;2.63;;
7747;SDS011;3918;42.564;23.164;2024-01-11T08:03:17;5.38;;;4.10;;
7747;SDS011;3918;42.564;23.164;2024-01-11T08:05:44;4.80;;;3.13;;
7747;SDS011;3918;42.564;23.164;2024-01-11T08:08:11;3.92;;;3.33;;
7747;SDS011;3918;42.564;23.164;2024-01-11T08:10:39;3.22;;;2.92;;
7747;SDS011;3918;42.564;23.164;2024-01-11T08:13:06;3.65;;;2.88;;
7747;SDS011;3918;42.564;23.164;2024-01-11T08:15:34;5.25;;;3.10;;
7747;SDS011;3918;42.564;23.164;2024-01-11T08:18:03;4.18;;;2.70;;
7747;SDS011;3918;42.564;23.164;2024-01-11T08:20:30;3.35;;;3.00;;
7747;SDS011;3918;42.564;23.164;2024-01-11T08:22:57;5.78;;;2.83;;
7747;SDS011;3918;42.564;23.164;2024-01-11T08:25:24;3.30;;;2.90;;
7747;SDS011;3918;42.564;23.164;2024-01-11T08:27:52;4.47;;;3.35;;
7747;SDS011;3918;42.564;23.164;2024-01-11T08:30:19;5.13;;;3.55;;
7747;SDS011;3918;42.564;23.164;2024-01-11T08:32:46;2.80;;;2.60;;
7747;SDS011;3918;42.564;23.164;2024-01-11T08:35:13;2.60;;;2.40;;
7747;SDS011;3918;42.564;23.164;2024-01-11T08:37:41;3.08;;;2.40;;
7747;SDS011;3918;42.564;23.164;2024-01-11T08:40:08;4.15;;;2.35;;
7747;SDS011;3918;42.564;23.164;2024-01-11T08:42:36;3.10;;;2.65;;
7747;SDS011;3918;42.564;23.164;2024-01-11T08:45:05;4.50;;;2.80;;
7747;SDS011;3918;42.564;23.164;2024-01-11T08:47:32;2.05;;;1.92;;
7747;SDS011;3918;42.564;23.164;2024-01-11T08:49:59;3.65;;;2.63;;
7747;SDS011;3918;42.564;23.164;2024-01-11T08:52:26;11.02;;;6.60;;
7747;SDS011;3918;42.564;23.164;2024-01-11T08:54:53;11.10;;;6.85;;
7747;SDS011;3918;42.564;23.164;2024-01-11T08:57:20;11.68;;;6.63;;
7747;SDS011;3918;42.564;23.164;2024-01-11T08:59:46;16.42;;;7.50;;
7747;SDS011;3918;42.564;23.164;2024-01-11T09:02:15;9.57;;;5.60;;
7747;SDS011;3918;42.564;23.164;2024-01-11T09:04:41;7.23;;;5.10;;
7747;SDS011;3918;42.564;23.164;2024-01-11T09:07:08;8.87;;;6.53;;
7747;SDS011;3918;42.564;23.164;2024-01-11T09:09:35;12.43;;;6.00;;
7747;SDS011;3918;42.564;23.164;2024-01-11T09:12:01;7.10;;;4.90;;
7747;SDS011;3918;42.564;23.164;2024-01-11T09:14:29;12.30;;;5.57;;
7747;SDS011;3918;42.564;23.164;2024-01-11T09:16:55;7.00;;;5.30;;
7747;SDS011;3918;42.564;23.164;2024-01-11T09:19:23;11.87;;;5.97;;
7747;SDS011;3918;42.564;23.164;2024-01-11T09:21:50;8.27;;;3.80;;
7747;SDS011;3918;42.564;23.164;2024-01-11T09:24:17;5.90;;;4.30;;
7747;SDS011;3918;42.564;23.164;2024-01-11T09:26:44;9.50;;;5.67;;
7747;SDS011;3918;42.564;23.164;2024-01-11T09:29:10;12.23;;;5.80;;
7747;SDS011;3918;42.564;23.164;2024-01-11T09:31:38;9.10;;;5.00;;
7747;SDS011;3918;42.564;23.164;2024-01-11T09:34:05;7.93;;;5.50;;
7747;SDS011;3918;42.564;23.164;2024-01-11T09:36:34;10.67;;;6.23;;
7747;SDS011;3918;42.564;23.164;2024-01-11T09:39:03;13.27;;;6.63;;
7747;SDS011;3918;42.564;23.164;2024-01-11T09:41:30;13.53;;;6.83;;
7747;SDS011;3918;42.564;23.164;2024-01-11T09:43:59;10.97;;;6.37;;
7747;SDS011;3918;42.564;23.164;2024-01-11T09:46:27;11.30;;;5.70;;
7747;SDS011;3918;42.564;23.164;2024-01-11T09:48:54;8.73;;;4.67;;
7747;SDS011;3918;42.564;23.164;2024-01-11T09:51:23;11.17;;;4.60;;
7747;SDS011;3918;42.564;23.164;2024-01-11T09:53:53;7.10;;;3.40;;
7747;SDS011;3918;42.564;23.164;2024-01-11T09:56:21;8.97;;;3.97;;
7747;SDS011;3918;42.564;23.164;2024-01-11T09:58:50;4.03;;;2.10;;
7747;SDS011;3918;42.564;23.164;2024-01-11T10:01:17;3.97;;;3.10;;
7747;SDS011;3918;42.564;23.164;2024-01-11T10:03:44;3.70;;;2.37;;
7747;SDS011;3918;42.564;23.164;2024-01-11T10:06:12;4.50;;;2.73;;
7747;SDS011;3918;42.564;23.164;2024-01-11T10:08:40;1.20;;;1.20;;
7747;SDS011;3918;42.564;23.164;2024-01-11T10:11:09;1.77;;;1.47;;
7747;SDS011;3918;42.564;23.164;2024-01-11T10:13:36;2.57;;;1.53;;
7747;SDS011;3918;42.564;23.164;2024-01-11T10:16:07;1.60;;;1.50;;
7747;SDS011;3918;42.564;23.164;2024-01-11T10:18:35;1.67;;;1.57;;
7747;SDS011;3918;42.564;23.164;2024-01-11T10:21:02;1.53;;;1.40;;
7747;SDS011;3918;42.564;23.164;2024-01-11T10:23:32;1.53;;;1.40;;
7747;SDS011;3918;42.564;23.164;2024-01-11T10:26:00;1.70;;;1.50;;
7747;SDS011;3918;42.564;23.164;2024-01-11T10:28:28;1.80;;;1.50;;
7747;SDS011;3918;42.564;23.164;2024-01-11T10:30:55;2.70;;;1.97;;
7747;SDS011;3918;42.564;23.164;2024-01-11T10:33:24;1.93;;;1.83;;
7747;SDS011;3918;42.564;23.164;2024-01-11T10:35:51;1.80;;;1.70;;
7747;SDS011;3918;42.564;23.164;2024-01-11T10:38:17;3.70;;;1.70;;
7747;SDS011;3918;42.564;23.164;2024-01-11T10:40:44;5.13;;;2.37;;
7747;SDS011;3918;42.564;23.164;2024-01-11T10:43:12;3.23;;;1.97;;
7747;SDS011;3918;42.564;23.164;2024-01-11T10:45:47;1.83;;;1.73;;
7747;SDS011;3918;42.564;23.164;2024-01-11T10:48:18;1.43;;;1.33;;
7747;SDS011;3918;42.564;23.164;2024-01-11T10:50:49;1.50;;;1.40;;
7747;SDS011;3918;42.564;23.164;2024-01-11T10:53:25;1.70;;;1.60;;
7747;SDS011;3918;42.564;23.164;2024-01-11T10:55:55;2.80;;;2.60;;
7747;SDS011;3918;42.564;23.164;2024-01-11T10:58:24;2.13;;;1.93;;
7747;SDS011;3918;42.564;23.164;2024-01-11T11:00:54;2.33;;;2.13;;
7747;SDS011;3918;42.564;23.164;2024-01-11T11:03:21;1.90;;;1.80;;
7747;SDS011;3918;42.564;23.164;2024-01-11T11:05:49;1.87;;;1.77;;
7747;SDS011;3918;42.564;23.164;2024-01-11T11:08:20;2.20;;;2.10;;
7747;SDS011;3918;42.564;23.164;2024-01-11T11:10:49;2.10;;;2.00;;
7747;SDS011;3918;42.564;23.164;2024-01-11T11:13:21;2.13;;;2.03;;
7747;SDS011;3918;42.564;23.164;2024-01-11T11:15:48;1.97;;;1.60;;
7747;SDS011;3918;42.564;23.164;2024-01-11T11:18:16;1.90;;;1.80;;
7747;SDS011;3918;42.564;23.164;2024-01-11T11:20:44;2.80;;;1.70;;
7747;SDS011;3918;42.564;23.164;2024-01-11T11:23:13;2.17;;;2.00;;
7747;SDS011;3918;42.564;23.164;2024-01-11T11:25:42;2.50;;;2.30;;
7747;SDS011;3918;42.564;23.164;2024-01-11T11:28:12;2.60;;;2.40;;
7747;SDS011;3918;42.564;23.164;2024-01-11T11:30:40;8.47;;;3.00;;
7747;SDS011;3918;42.564;23.164;2024-01-11T11:33:08;6.60;;;3.17;;
7747;SDS011;3918;42.564;23.164;2024-01-11T11:35:37;5.90;;;2.77;;
7747;SDS011;3918;42.564;23.164;2024-01-11T11:38:05;5.63;;;2.90;;
7747;SDS011;3918;42.564;23.164;2024-01-11T11:40:32;4.37;;;2.70;;
7747;SDS011;3918;42.564;23.164;2024-01-11T11:43:04;5.10;;;2.80;;
7747;SDS011;3918;42.564;23.164;2024-01-11T11:45:31;6.57;;;3.13;;
7747;SDS011;3918;42.564;23.164;2024-01-11T11:47:58;7.13;;;2.77;;
7747;SDS011;3918;42.564;23.164;2024-01-11T11:50:25;5.83;;;2.70;;
7747;SDS011;3918;42.564;23.164;2024-01-11T11:52:54;7.50;;;3.73;;
7747;SDS011;3918;42.564;23.164;2024-01-11T11:55:22;6.63;;;4.33;;
7747;SDS011;3918;42.564;23.164;2024-01-11T11:57:50;9.43;;;4.43;;
7747;SDS011;3918;42.564;23.164;2024-01-11T12:00:17;12.67;;;4.83;;
7747;SDS011;3918;42.564;23.164;2024-01-11T12:02:44;11.23;;;5.07;;
7747;SDS011;3918;42.564;23.164;2024-01-11T12:05:13;9.47;;;4.07;;
7747;SDS011;3918;42.564;23.164;2024-01-11T12:07:40;10.03;;;4.47;;
7747;SDS011;3918;42.564;23.164;2024-01-11T12:10:08;16.33;;;4.50;;
7747;SDS011;3918;42.564;23.164;2024-01-11T12:12:37;10.13;;;4.73;;
7747;SDS011;3918;42.564;23.164;2024-01-11T12:15:05;11.83;;;4.60;;
7747;SDS011;3918;42.564;23.164;2024-01-11T12:17:34;13.37;;;5.13;;
7747;SDS011;3918;42.564;23.164;2024-01-11T12:20:01;8.90;;;4.50;;
7747;SDS011;3918;42.564;23.164;2024-01-11T12:22:28;15.23;;;5.10;;
7747;SDS011;3918;42.564;23.164;2024-01-11T12:24:55;8.57;;;5.00;;
7747;SDS011;3918;42.564;23.164;2024-01-11T12:27:24;13.80;;;5.00;;
7747;SDS011;3918;42.564;23.164;2024-01-11T12:29:51;11.27;;;5.30;;
7747;SDS011;3918;42.564;23.164;2024-01-11T12:32:18;8.50;;;5.10;;
7747;SDS011;3918;42.564;23.164;2024-01-11T12:34:45;11.17;;;5.23;;
7747;SDS011;3918;42.564;23.164;2024-01-11T12:37:13;8.97;;;4.63;;
7747;SDS011;3918;42.564;23.164;2024-01-11T12:39:41;10.03;;;4.83;;
7747;SDS011;3918;42.564;23.164;2024-01-11T12:42:08;11.50;;;5.47;;
7747;SDS011;3918;42.564;23.164;2024-01-11T12:44:36;16.23;;;5.77;;
7747;SDS011;3918;42.564;23.164;2024-01-11T12:47:04;13.73;;;4.33;;
7747;SDS011;3918;42.564;23.164;2024-01-11T12:49:32;13.90;;;4.07;;
7747;SDS011;3918;42.564;23.164;2024-01-11T12:51:59;7.67;;;4.13;;
7747;SDS011;3918;42.564;23.164;2024-01-11T12:54:25;8.13;;;4.60;;
7747;SDS011;3918;42.564;23.164;2024-01-11T12:56:53;7.53;;;4.23;;
7747;SDS011;3918;42.564;23.164;2024-01-11T12:59:20;6.93;;;3.87;;
7747;SDS011;3918;42.564;23.164;2024-01-11T13:01:53;11.27;;;4.30;;
7747;SDS011;3918;42.564;23.164;2024-01-11T13:04:21;8.63;;;4.30;;
7747;SDS011;3918;42.564;23.164;2024-01-11T13:06:49;9.40;;;3.83;;
7747;SDS011;3918;42.564;23.164;2024-01-11T13:09:15;9.23;;;4.17;;
7747;SDS011;3918;42.564;23.164;2024-01-11T13:11:42;8.67;;;4.00;;
7747;SDS011;3918;42.564;23.164;2024-01-11T13:14:09;3.70;;;2.90;;
7747;SDS011;3918;42.564;23.164;2024-01-11T13:16:43;6.03;;;3.60;;
7747;SDS011;3918;42.564;23.164;2024-01-11T13:19:12;5.63;;;3.33;;
7747;SDS011;3918;42.564;23.164;2024-01-11T13:21:38;6.47;;;3.37;;
7747;SDS011;3918;42.564;23.164;2024-01-11T13:24:06;8.37;;;3.87;;
7747;SDS011;3918;42.564;23.164;2024-01-11T13:26:35;10.63;;;3.57;;
7747;SDS011;3918;42.564;23.164;2024-01-11T13:29:03;8.63;;;3.60;;
7747;SDS011;3918;42.564;23.164;2024-01-11T13:31:30;6.20;;;3.47;;
7747;SDS011;3918;42.564;23.164;2024-01-11T13:33:57;6.20;;;3.30;;
7747;SDS011;3918;42.564;23.164;2024-01-11T13:36:25;6.37;;;3.13;;
7747;SDS011;3918;42.564;23.164;2024-01-11T13:38:52;11.83;;;3.00;;
7747;SDS011;3918;42.564;23.164;2024-01-11T13:41:20;5.23;;;3.60;;
7747;SDS011;3918;42.564;23.164;2024-01-11T13:43:47;7.87;;;3.20;;
7747;SDS011;3918;42.564;23.164;2024-01-11T13:46:14;6.67;;;4.00;;
7747;SDS011;3918;42.564;23.164;2024-01-11T13:48:43;6.53;;;3.30;;
7747;SDS011;3918;42.564;23.164;2024-01-11T13:51:09;10.13;;;3.17;;
7747;SDS011;3918;42.564;23.164;2024-01-11T13:53:39;10.07;;;3.63;;
7747;SDS011;3918;42.564;23.164;2024-01-11T13:56:06;10.67;;;3.67;;
7747;SDS011;3918;42.564;23.164;2024-01-11T13:58:33;14.47;;;2.80;;
7747;SDS011;3918;42.564;23.164;2024-01-11T14:01:00;8.07;;;3.17;;
7747;SDS011;3918;42.564;23.164;2024-01-11T14:03:27;6.27;;;2.87;;
7747;SDS011;3918;42.564;23.164;2024-01-11T14:05:54;5.70;;;2.60;;
7747;SDS011;3918;42.564;23.164;2024-01-11T14:08:20;4.70;;;2.70;;
7747;SDS011;3918;42.564;23.164;2024-01-11T14:10:49;5.90;;;2.90;;
7747;SDS011;3918;42.564;23.164;2024-01-11T14:13:15;5.63;;;3.07;;
7747;SDS011;3918;42.564;23.164;2024-01-11T14:15:42;6.97;;;3.10;;
7747;SDS011;3918;42.564;23.164;2024-01-11T14:18:09;9.07;;;3.03;;
7747;SDS011;3918;42.564;23.164;2024-01-11T14:20:37;10.93;;;3.23;;
7747;SDS011;3918;42.564;23.164;2024-01-11T14:23:04;5.77;;;3.17;;
7747;SDS011;3918;42.564;23.164;2024-01-11T14:25:30;5.57;;;3.00;;
7747;SDS011;3918;42.564;23.164;2024-01-11T14:27:59;5.80;;;3.43;;
7747;SDS011;3918;42.564;23.164;2024-01-11T14:30:25;4.10;;;3.10;;
7747;SDS011;3918;42.564;23.164;2024-01-11T14:32:52;6.47;;;3.00;;
7747;SDS011;3918;42.564;23.164;2024-01-11T14:35:19;4.17;;;2.63;;
7747;SDS011;3918;42.564;23.164;2024-01-11T14:37:46;4.37;;;3.20;;
7747;SDS011;3918;42.564;23.164;2024-01-11T14:40:13;6.60;;;2.87;;
7747;SDS011;3918;42.564;23.164;2024-01-11T14:42:40;3.83;;;3.03;;
7747;SDS011;3918;42.564;23.164;2024-01-11T14:45:09;5.87;;;3.33;;
7747;SDS011;3918;42.564;23.164;2024-01-11T14:47:36;4.87;;;3.23;;
7747;SDS011;3918;42.564;23.164;2024-01-11T14:50:03;3.50;;;2.70;;
7747;SDS011;3918;42.564;23.164;2024-01-11T14:52:34;6.13;;;3.23;;
7747;SDS011;3918;42.564;23.164;2024-01-11T14:55:01;6.17;;;2.87;;
7747;SDS011;3918;42.564;23.164;2024-01-11T14:57:29;4.47;;;3.03;;
7747;SDS011;3918;42.564;23.164;2024-01-11T14:59:56;4.57;;;3.00;;
7747;SDS011;3918;42.564;23.164;2024-01-11T15:02:24;7.10;;;3.23;;
7747;SDS011;3918;42.564;23.164;2024-01-11T15:04:50;4.23;;;3.27;;
7747;SDS011;3918;42.564;23.164;2024-01-11T15:07:18;6.10;;;3.07;;
7747;SDS011;3918;42.564;23.164;2024-01-11T15:09:44;7.03;;;3.13;;
7747;SDS011;3918;42.564;23.164;2024-01-11T15:12:11;3.43;;;2.80;;
7747;SDS011;3918;42.564;23.164;2024-01-11T15:14:38;7.83;;;3.13;;
7747;SDS011;3918;42.564;23.164;2024-01-11T15:17:05;4.47;;;3.10;;
7747;SDS011;3918;42.564;23.164;2024-01-11T15:19:33;5.73;;;3.13;;
7747;SDS011;3918;42.564;23.164;2024-01-11T15:22:00;7.33;;;3.70;;
7747;SDS011;3918;42.564;23.164;2024-01-11T15:24:26;6.60;;;3.37;;
7747;SDS011;3918;42.564;23.164;2024-01-11T15:26:53;8.07;;;5.27;;
7747;SDS011;3918;42.564;23.164;2024-01-11T15:29:20;15.60;;;7.53;;
7747;SDS011;3918;42.564;23.164;2024-01-11T15:31:47;14.33;;;8.07;;
7747;SDS011;3918;42.564;23.164;2024-01-11T15:34:15;10.40;;;6.77;;
7747;SDS011;3918;42.564;23.164;2024-01-11T15:36:43;12.57;;;6.93;;
7747;SDS011;3918;42.564;23.164;2024-01-11T15:39:10;14.73;;;6.10;;
7747;SDS011;3918;42.564;23.164;2024-01-11T15:41:37;9.87;;;4.83;;
7747;SDS011;3918;42.564;23.164;2024-01-11T15:44:04;9.77;;;5.10;;
7747;SDS011;3918;42.564;23.164;2024-01-11T15:46:30;7.53;;;4.60;;
7747;SDS011;3918;42.564;23.164;2024-01-11T15:48:57;8.00;;;4.60;;
7747;SDS011;3918;42.564;23.164;2024-01-11T15:51:26;6.23;;;3.93;;
7747;SDS011;3918;42.564;23.164;2024-01-11T15:53:54;11.00;;;4.70;;
7747;SDS011;3918;42.564;23.164;2024-01-11T15:56:21;7.47;;;4.73;;
7747;SDS011;3918;42.564;23.164;2024-01-11T15:58:47;6.33;;;4.90;;
7747;SDS011;3918;42.564;23.164;2024-01-11T16:01:14;4.57;;;4.10;;
7747;SDS011;3918;42.564;23.164;2024-01-11T16:03:41;6.20;;;4.70;;
7747;SDS011;3918;42.564;23.164;2024-01-11T16:06:09;7.43;;;4.83;;
7747;SDS011;3918;42.564;23.164;2024-01-11T16:08:36;6.50;;;5.10;;
7747;SDS011;3918;42.564;23.164;2024-01-11T16:11:04;7.37;;;5.90;;
7747;SDS011;3918;42.564;23.164;2024-01-11T16:13:31;6.80;;;6.00;;
7747;SDS011;3918;42.564;23.164;2024-01-11T16:15:58;9.80;;;5.43;;
7747;SDS011;3918;42.564;23.164;2024-01-11T16:18:25;6.27;;;4.87;;
7747;SDS011;3918;42.564;23.164;2024-01-11T16:20:51;5.40;;;4.90;;
7747;SDS011;3918;42.564;23.164;2024-01-11T16:23:19;8.87;;;5.23;;
7747;SDS011;3918;42.564;23.164;2024-01-11T16:25:46;5.87;;;4.60;;
7747;SDS011;3918;42.564;23.164;2024-01-11T16:28:15;6.97;;;4.43;;
7747;SDS011;3918;42.564;23.164;2024-01-11T16:30:42;4.63;;;3.87;;
7747;SDS011;3918;42.564;23.164;2024-01-11T16:33:10;5.88;;;4.95;;
7747;SDS011;3918;42.564;23.164;2024-01-11T16:35:38;8.03;;;4.70;;
7747;SDS011;3918;42.564;23.164;2024-01-11T16:38:04;7.10;;;4.90;;
7747;SDS011;3918;42.564;23.164;2024-01-11T16:40:31;5.97;;;5.00;;
7747;SDS011;3918;42.564;23.164;2024-01-11T16:42:58;5.03;;;4.43;;
7747;SDS011;3918;42.564;23.164;2024-01-11T16:45:27;10.03;;;5.47;;
7747;SDS011;3918;42.564;23.164;2024-01-11T16:47:56;6.20;;;4.20;;
7747;SDS011;3918;42.564;23.164;2024-01-11T16:50:23;5.93;;;4.70;;
7747;SDS011;3918;42.564;23.164;2024-01-11T16:52:50;5.93;;;4.40;;
7747;SDS011;3918;42.564;23.164;2024-01-11T16:55:17;5.47;;;4.30;;
7747;SDS011;3918;42.564;23.164;2024-01-11T16:57:44;6.63;;;4.30;;
7747;SDS011;3918;42.564;23.164;2024-01-11T17:00:11;8.27;;;5.55;;
7747;SDS011;3918;42.564;23.164;2024-01-11T17:02:39;6.70;;;4.67;;
7747;SDS011;3918;42.564;23.164;2024-01-11T17:05:06;8.17;;;4.63;;
7747;SDS011;3918;42.564;23.164;2024-01-11T17:07:33;5.37;;;4.03;;
7747;SDS011;3918;42.564;23.164;2024-01-11T17:10:00;6.90;;;4.17;;
7747;SDS011;3918;42.564;23.164;2024-01-11T17:12:27;5.03;;;3.87;;
7747;SDS011;3918;42.564;23.164;2024-01-11T17:14:54;6.47;;;4.17;;
7747;SDS011;3918;42.564;23.164;2024-01-11T17:17:21;4.30;;;3.50;;
7747;SDS011;3918;42.564;23.164;2024-01-11T17:19:49;4.57;;;3.20;;
7747;SDS011;3918;42.564;23.164;2024-01-11T17:22:16;3.03;;;2.80;;
7747;SDS011;3918;42.564;23.164;2024-01-11T17:24:42;4.17;;;2.93;;
7747;SDS011;3918;42.564;23.164;2024-01-11T17:27:09;5.00;;;3.53;;
7747;SDS011;3918;42.564;23.164;2024-01-11T17:29:39;3.57;;;2.87;;
7747;SDS011;3918;42.564;23.164;2024-01-11T17:32:07;4.40;;;2.73;;
7747;SDS011;3918;42.564;23.164;2024-01-11T17:34:34;2.97;;;2.77;;
7747;SDS011;3918;42.564;23.164;2024-01-11T17:37:02;5.28;;;3.67;;
7747;SDS011;3918;42.564;23.164;2024-01-11T17:39:29;4.20;;;3.10;;
7747;SDS011;3918;42.564;23.164;2024-01-11T17:41:56;4.20;;;2.90;;
7747;SDS011;3918;42.564;23.164;2024-01-11T17:44:24;5.43;;;2.97;;
7747;SDS011;3918;42.564;23.164;2024-01-11T17:46:51;5.23;;;2.93;;
7747;SDS011;3918;42.564;23.164;2024-01-11T17:49:18;4.23;;;2.90;;
7747;SDS011;3918;42.564;23.164;2024-01-11T17:51:45;4.97;;;3.37;;
7747;SDS011;3918;42.564;23.164;2024-01-11T17:54:14;3.57;;;2.67;;
7747;SDS011;3918;42.564;23.164;2024-01-11T17:56:40;6.13;;;3.20;;
7747;SDS011;3918;42.564;23.164;2024-01-11T17:59:08;5.77;;;3.80;;
7747;SDS011;3918;42.564;23.164;2024-01-11T18:01:35;4.68;;;4.10;;
7747;SDS011;3918;42.564;23.164;2024-01-11T18:04:05;4.97;;;4.20;;
7747;SDS011;3918;42.564;23.164;2024-01-11T18:06:31;3.80;;;3.33;;
7747;SDS011;3918;42.564;23.164;2024-01-11T18:08:58;3.63;;;3.20;;
7747;SDS011;3918;42.564;23.164;2024-01-11T18:11:30;4.80;;;3.60;;
7747;SDS011;3918;42.564;23.164;2024-01-11T18:13:57;5.97;;;3.50;;
7747;SDS011;3918;42.564;23.164;2024-01-11T18:16:24;5.20;;;3.67;;
7747;SDS011;3918;42.564;23.164;2024-01-11T18:18:51;5.60;;;3.57;;
7747;SDS011;3918;42.564;23.164;2024-01-11T18:21:17;7.33;;;3.73;;
7747;SDS011;3918;42.564;23.164;2024-01-11T18:23:45;5.03;;;3.77;;
7747;SDS011;3918;42.564;23.164;2024-01-11T18:26:12;5.80;;;3.87;;
7747;SDS011;3918;42.564;23.164;2024-01-11T18:28:42;4.40;;;3.53;;
7747;SDS011;3918;42.564;23.164;2024-01-11T18:31:13;4.17;;;3.60;;
7747;SDS011;3918;42.564;23.164;2024-01-11T18:33:41;4.80;;;3.90;;
7747;SDS011;3918;42.564;23.164;2024-01-11T18:36:08;5.73;;;3.87;;
7747;SDS011;3918;42.564;23.164;2024-01-11T18:38:35;6.57;;;4.20;;
7747;SDS011;3918;42.564;23.164;2024-01-11T18:41:03;6.87;;;4.20;;
7747;SDS011;3918;42.564;23.164;2024-01-11T18:43:30;5.23;;;4.10;;
7747;SDS011;3918;42.564;23.164;2024-01-11T18:45:58;6.57;;;4.23;;
7747;SDS011;3918;42.564;23.164;2024-01-11T18:48:28;3.73;;;3.40;;
7747;SDS011;3918;42.564;23.164;2024-01-11T18:50:54;4.20;;;3.80;;
7747;SDS011;3918;42.564;23.164;2024-01-11T18:53:21;4.40;;;4.00;;
7747;SDS011;3918;42.564;23.164;2024-01-11T18:55:48;4.30;;;3.43;;
7747;SDS011;3918;42.564;23.164;2024-01-11T18:58:15;4.43;;;3.60;;
7747;SDS011;3918;42.564;23.164;2024-01-11T19:00:42;5.30;;;3.43;;
7747;SDS011;3918;42.564;23.164;2024-01-11T19:03:11;3.85;;;3.13;;
7747;SDS011;3918;42.564;23.164;2024-01-11T19:05:40;3.57;;;3.10;;
7747;SDS011;3918;42.564;23.164;2024-01-11T19:08:06;3.73;;;3.00;;
7747;SDS011;3918;42.564;23.164;2024-01-11T19:10:33;3.77;;;2.93;;
7747;SDS011;3918;42.564;23.164;2024-01-11T19:13:00;4.60;;;2.60;;
7747;SDS011;3918;42.564;23.164;2024-01-11T19:15:27;2.70;;;2.50;;
7747;SDS011;3918;42.564;23.164;2024-01-11T19:17:54;4.70;;;3.27;;
7747;SDS011;3918;42.564;23.164;2024-01-11T19:20:22;3.70;;;3.00;;
7747;SDS011;3918;42.564;23.164;2024-01-11T19:22:49;6.60;;;3.40;;
7747;SDS011;3918;42.564;23.164;2024-01-11T19:25:16;6.13;;;3.87;;
7747;SDS011;3918;42.564;23.164;2024-01-11T19:27:43;7.53;;;4.80;;
7747;SDS011;3918;42.564;23.164;2024-01-11T19:30:10;7.57;;;5.00;;
7747;SDS011;3918;42.564;23.164;2024-01-11T19:32:37;16.47;;;9.07;;
7747;SDS011;3918;42.564;23.164;2024-01-11T19:35:04;17.23;;;9.37;;
7747;SDS011;3918;42.564;23.164;2024-01-11T19:37:33;19.80;;;10.20;;
7747;SDS011;3918;42.564;23.164;2024-01-11T19:40:00;23.25;;;11.30;;
7747;SDS011;3918;42.564;23.164;2024-01-11T19:42:28;17.90;;;9.67;;
7747;SDS011;3918;42.564;23.164;2024-01-11T19:44:54;23.83;;;13.70;;
7747;SDS011;3918;42.564;23.164;2024-01-11T19:47:21;21.13;;;12.43;;
7747;SDS011;3918;42.564;23.164;2024-01-11T19:49:48;21.40;;;11.00;;
7747;SDS011;3918;42.564;23.164;2024-01-11T19:52:15;22.53;;;11.30;;
7747;SDS011;3918;42.564;23.164;2024-01-11T19:54:43;20.03;;;11.13;;
7747;SDS011;3918;42.564;23.164;2024-01-11T19:57:11;20.30;;;11.63;;
7747;SDS011;3918;42.564;23.164;2024-01-11T19:59:39;24.70;;;12.87;;
